Bow Harmony — LAUC7 — position and weather

sailwx.info

Track history (hours):
 
Tides and Currents Weather Stations Pressure Air Temp Water Temp Dewpoint Dewpoint Depression Visibility Wind Speed Wind Dir Waves Ship Positions

Bow Harmony

Last reported at 2017-Nov-17 05:15 UTC. Time now 2017-Nov-21 06:31 UTC.
Position N 29°20' W 094°42'.

Length 170 m; draft 7.2 m.

Type: Ship. MMSI: 257441000.

Date/timePositionNaut miles runAvg speedWind from/ knotsBaromVisibWave heightAir tempDewpointWater temp
2017-Nov-17 05:15N 29°20' W 094°42'413.7
2017-Nov-17 04:57N 29°21' W 094°46'1313.2
2017-Nov-17 04:00N 29°32' W 094°53'613.0
2017-Nov-17 03:30N 29°37' W 094°57'611.3
2017-Nov-17 03:00N 29°42' W 095°00'4 8.0
2017-Nov-17 02:30N 29°45' W 095°04'2 0.1
2017-Nov-15 22:04N 29°45' W 095°06'0 0.1
2017-Nov-15 22:01N 29°45' W 095°06'2 3.1
2017-Nov-15 21:30N 29°45' W 095°04'4 8.0
2017-Nov-15 21:00N 29°42' W 095°01'510.4
2017-Nov-15 20:30N 29°38' W 094°58'613.0
2017-Nov-15 20:00N 29°32' W 094°54'713.3
2017-Nov-15 19:30N 29°26' W 094°50'  
2017-Nov-12 08:39N 29°32' W 094°53'212.5
2017-Nov-12 08:30N 29°33' W 094°55'612.5
2017-Nov-12 08:00N 29°39' W 094°58'510.7
2017-Nov-12 07:31N 29°43' W 095°01'4 8.7
2017-Nov-12 07:00N 29°46' W 095°05'1 0.5
2017-Nov-12 05:11N 29°45' W 095°06'0 0.1
2017-Nov-12 04:59N 29°45' W 095°06'0 0.0
2017-Nov-10 05:14N 29°45' W 095°06'0 0.0
2017-Nov-10 04:59N 29°45' W 095°06'0 0.3
2017-Nov-10 04:30N 29°45' W 095°06'2 3.2
2017-Nov-10 04:00N 29°46' W 095°04'4 7.7
2017-Nov-10 03:30N 29°43' W 095°01'5 9.3
2017-Nov-10 03:00N 29°39' W 094°58'510.7
2017-Nov-10 02:30N 29°34' W 094°56'611.2
2017-Nov-10 02:00N 29°30' W 094°52'611.4
2017-Nov-10 01:30N 29°24' W 094°49'  
Track history (hours):
 
Tides and Currents Weather Stations Pressure Air Temp Water Temp Dewpoint Dewpoint Depression Visibility Wind Speed Wind Dir Waves Ship Positions

Bow Harmony

Last reported at 2017-Nov-17 05:15 UTC. Time now 2017-Nov-21 06:31 UTC.
Position N 29°20' W 094°42'.

Length 170 m; draft 7.2 m.

Type: Ship. MMSI: 257441000.

Date/timePositionNaut miles runAvg speedWind from/ knotsBaromVisibWave heightAir tempDewpointWater temp
2017-Nov-17 05:15N 29°20' W 094°42'413.7
2017-Nov-17 04:57N 29°21' W 094°46'1313.2
2017-Nov-17 04:00N 29°32' W 094°53'613.0
2017-Nov-17 03:30N 29°37' W 094°57'611.3
2017-Nov-17 03:00N 29°42' W 095°00'4 8.0
2017-Nov-17 02:30N 29°45' W 095°04'2 0.1
2017-Nov-15 22:04N 29°45' W 095°06'0 0.1
2017-Nov-15 22:01N 29°45' W 095°06'2 3.1
2017-Nov-15 21:30N 29°45' W 095°04'4 8.0
2017-Nov-15 21:00N 29°42' W 095°01'510.4
2017-Nov-15 20:30N 29°38' W 094°58'613.0
2017-Nov-15 20:00N 29°32' W 094°54'713.3
2017-Nov-15 19:30N 29°26' W 094°50'  
2017-Nov-12 08:39N 29°32' W 094°53'212.5
2017-Nov-12 08:30N 29°33' W 094°55'612.5
2017-Nov-12 08:00N 29°39' W 094°58'510.7
2017-Nov-12 07:31N 29°43' W 095°01'4 8.7
2017-Nov-12 07:00N 29°46' W 095°05'1 0.5
2017-Nov-12 05:11N 29°45' W 095°06'0 0.1
2017-Nov-12 04:59N 29°45' W 095°06'0 0.0
2017-Nov-10 05:14N 29°45' W 095°06'0 0.0
2017-Nov-10 04:59N 29°45' W 095°06'0 0.3
2017-Nov-10 04:30N 29°45' W 095°06'2 3.2
2017-Nov-10 04:00N 29°46' W 095°04'4 7.7
2017-Nov-10 03:30N 29°43' W 095°01'5 9.3
2017-Nov-10 03:00N 29°39' W 094°58'510.7
2017-Nov-10 02:30N 29°34' W 094°56'611.2
2017-Nov-10 02:00N 29°30' W 094°52'611.4
2017-Nov-10 01:30N 29°24' W 094°49'  

Dump ship's entire track history